Time;durP1;ratioP1;P1;durP2;ratioP2;P2;SDS_P1;SDS_P2;PMS_P1;PMS_P2;Temp;Humidity;BMP_temperature;BMP_pressure;BME280_temperature;BME280_humidity;BME280_pressure;Samples;Min_cycle;Max_cycle;Signal;HPM_P1;HPM_P2
2021/07/15 00:00:08;;;;;;;;;6.25;5.50;;;;;26.57;45.69;101735.66;5080229;28;45275;-78
2021/07/15 00:02:33;;;;;;;;;6.25;6.25;;;;;26.62;46.12;101746.59;5081104;28;45433;-78
2021/07/15 00:04:59;;;;;;;;;7.00;6.25;;;;;26.54;45.66;101728.06;5081999;28;46587;-78
2021/07/15 00:07:24;;;;;;;;;5.50;4.50;;;;;26.46;45.79;101721.00;5081124;28;45354;-78
2021/07/15 00:09:50;;;;;;;;;7.00;6.50;;;;;26.48;45.75;101721.63;5081455;28;45389;-78
2021/07/15 00:12:16;;;;;;;;;4.00;4.00;;;;;26.57;45.62;101740.19;5080917;28;45557;-78
2021/07/15 00:14:42;;;;;;;;;5.00;5.00;;;;;26.58;45.95;101747.16;5082853;28;45366;-78
2021/07/15 00:17:08;;;;;;;;;7.00;6.00;;;;;26.42;45.79;101722.34;5083753;28;45391;-79
2021/07/15 00:19:34;;;;;;;;;4.00;4.00;;;;;26.55;45.92;101742.19;5081658;28;45295;-78
2021/07/15 00:22:00;;;;;;;;;4.75;4.75;;;;;26.59;45.65;101752.34;5072008;28;45441;-78
2021/07/15 00:24:27;;;;;;;;;6.00;5.75;;;;;26.60;45.68;101758.47;5060619;28;46399;-78
2021/07/15 00:26:53;;;;;;;;;8.00;6.75;;;;;26.46;45.58;101733.50;5059662;28;45533;-78
2021/07/15 00:29:20;;;;;;;;;6.00;6.00;;;;;26.48;45.89;101739.47;5062884;28;45303;-78
2021/07/15 00:31:45;;;;;;;;;7.50;7.00;;;;;26.41;45.86;101728.72;5062068;27;45768;-78
2021/07/15 00:34:10;;;;;;;;;6.00;6.00;;;;;26.52;45.96;101743.41;5060605;28;45314;-78
2021/07/15 00:36:36;;;;;;;;;7.25;6.00;;;;;26.54;45.78;101746.75;5063970;28;45331;-78
2021/07/15 00:39:05;;;;;;;;;8.50;7.25;;;;;26.56;45.65;101755.38;5069736;27;45231;-78
2021/07/15 00:41:30;;;;;;;;;8.50;7.00;;;;;26.46;45.56;101745.00;5065504;28;45445;-78
2021/07/15 00:43:56;;;;;;;;;7.00;7.00;;;;;26.46;45.71;101739.69;5080151;28;45247;-78
2021/07/15 00:46:21;;;;;;;;;6.50;6.00;;;;;26.52;45.82;101749.56;5080995;28;45207;-78
2021/07/15 00:48:46;;;;;;;;;7.00;6.00;;;;;26.36;45.69;101726.59;5081983;28;45487;-78
2021/07/15 00:51:12;;;;;;;;;4.75;4.75;;;;;26.46;45.55;101745.00;5079541;28;45573;-78
2021/07/15 00:53:38;;;;;;;;;7.50;7.00;;;;;26.44;45.67;101738.22;5080711;28;46205;-78
2021/07/15 00:56:03;;;;;;;;;6.00;5.25;;;;;26.40;45.72;101735.88;5079297;28;45332;-78
2021/07/15 00:58:30;;;;;;;;;7.50;4.50;;;;;26.55;45.78;101756.38;5080455;28;45353;-79
2021/07/15 01:00:56;;;;;;;;;7.00;5.25;;;;;26.50;45.40;101743.59;5081050;28;45453;-78
2021/07/15 01:03:22;;;;;;;;;5.50;5.50;;;;;26.43;45.94;101729.34;5083067;28;46558;-79
2021/07/15 01:05:51;;;;;;;;;5.50;5.00;;;;;26.52;45.74;101746.06;5080795;28;45170;-78
2021/07/15 01:08:17;;;;;;;;;5.75;5.75;;;;;26.57;45.90;101756.22;5064918;28;45387;-78
2021/07/15 01:10:49;;;;;;;;;3.33;3.33;;;;;26.54;45.75;101752.06;5059855;28;45411;-79
2021/07/15 01:13:39;;;;;;;;;6.00;4.00;;;;;26.58;45.35;101757.84;5059425;28;45383;-78
2021/07/15 01:16:25;;;;;;;;;6.25;6.25;;;;;26.57;45.17;101754.34;5070072;28;45493;-78
2021/07/15 01:18:57;;;;;;;;;4.75;4.75;;;;;26.58;45.34;101758.69;5080617;28;45264;-77
2021/07/15 01:21:46;;;;;;;;;6.00;5.50;;;;;26.50;45.44;101746.28;5079897;28;45463;-78
2021/07/15 01:24:49;;;;;;;;;6.00;6.00;;;;;26.58;45.83;101753.34;5069455;28;45494;-78
2021/07/15 01:27:38;;;;;;;;;6.00;6.00;;;;;26.56;45.64;101751.88;5081778;28;45790;-79
2021/07/15 01:30:19;;;;;;;;;4.00;4.00;;;;;26.57;45.48;101758.88;5074678;28;45363;-78
2021/07/15 01:33:15;;;;;;;;;6.00;6.00;;;;;26.55;45.51;101769.72;5058003;28;45465;-78
2021/07/15 01:36:04;;;;;;;;;5.00;5.00;;;;;26.55;45.35;101758.22;5059388;28;46416;-78
2021/07/15 01:38:38;;;;;;;;;5.50;5.00;;;;;26.36;45.46;101723.13;5070501;28;45335;-78
2021/07/15 01:41:14;;;;;;;;;6.00;6.00;;;;;26.51;45.66;101753.28;5061236;28;45232;-78
2021/07/15 01:43:46;;;;;;;;;6.00;6.00;;;;;26.33;45.77;101735.00;5079624;28;45245;-78
2021/07/15 01:46:14;;;;;;;;;5.00;5.00;;;;;26.51;45.65;101755.94;5079690;28;46410;-79
2021/07/15 01:48:41;;;;;;;;;6.25;5.00;;;;;26.49;45.64;101763.28;5079737;28;45278;-78
2021/07/15 01:51:08;;;;;;;;;6.00;6.00;;;;;26.50;45.81;101761.47;5079858;28;45357;-78
2021/07/15 01:53:34;;;;;;;;;6.50;6.00;;;;;26.48;45.78;101763.50;5079600;27;45468;-79
2021/07/15 01:56:01;;;;;;;;;6.50;5.00;;;;;26.38;45.64;101748.59;5079403;28;45523;-78
2021/07/15 01:58:30;;;;;;;;;6.25;5.25;;;;;26.51;45.69;101766.63;5079373;28;45312;-77
2021/07/15 02:00:58;;;;;;;;;7.00;7.00;;;;;26.38;45.60;101747.75;5079535;28;45432;-79
2021/07/15 02:03:24;;;;;;;;;7.50;6.00;;;;;26.41;45.47;101750.06;5079312;28;45640;-78
2021/07/15 02:05:52;;;;;;;;;5.50;5.50;;;;;26.41;45.83;101753.53;5076510;28;45449;-79
2021/07/15 02:08:18;;;;;;;;;6.25;6.25;;;;;26.35;45.91;101742.78;5062369;28;45479;-78
2021/07/15 02:10:45;;;;;;;;;7.33;6.00;;;;;26.50;45.89;101770.28;5059288;28;45490;-78
2021/07/15 02:13:11;;;;;;;;;5.00;5.00;;;;;26.33;45.72;101739.50;5059164;28;45422;-79
2021/07/15 02:15:39;;;;;;;;;5.67;5.67;;;;;26.43;45.57;101760.53;5058833;28;45276;-78
2021/07/15 02:18:11;;;;;;;;;9.00;6.50;;;;;26.38;45.53;101759.25;5059414;28;45421;-78
2021/07/15 02:20:37;;;;;;;;;5.75;5.75;;;;;26.40;45.65;101756.41;5062526;28;45755;-78
2021/07/15 02:23:06;;;;;;;;;5.00;5.00;;;;;26.38;45.69;101761.09;5058804;28;45364;-78
2021/07/15 02:25:33;;;;;;;;;4.33;4.00;;;;;26.34;45.73;101744.63;5062503;28;45351;-78
2021/07/15 02:27:59;;;;;;;;;6.67;6.33;;;;;26.52;45.51;101773.59;5062531;28;45375;-78
2021/07/15 02:30:25;;;;;;;;;7.00;6.25;;;;;26.42;45.30;101754.38;5066508;28;45380;-79
2021/07/15 02:33:03;;;;;;;;;5.00;5.00;;;;;26.48;45.57;101761.66;5062262;28;45466;-79
2021/07/15 02:35:39;;;;;;;;;4.75;4.75;;;;;26.54;45.59;101768.09;5063138;28;45541;-78
2021/07/15 02:38:08;;;;;;;;;6.75;6.75;;;;;26.48;45.63;101759.00;5074678;28;45441;-78
2021/07/15 02:40:33;;;;;;;;;6.50;6.50;;;;;26.42;45.46;101746.34;5062656;28;45447;-78
2021/07/15 02:42:59;;;;;;;;;6.00;6.00;;;;;26.53;45.57;101769.09;5079997;28;45387;-78
2021/07/15 02:45:24;;;;;;;;;8.00;7.00;;;;;26.35;45.48;101738.28;5082191;28;46270;-79
2021/07/15 02:47:51;;;;;;;;;3.33;3.33;;;;;26.49;45.33;101752.63;5082880;28;45256;-79
2021/07/15 02:50:20;;;;;;;;;6.25;6.25;;;;;26.38;45.26;101745.09;5081941;28;45340;-79
2021/07/15 02:52:48;;;;;;;;;6.25;6.00;;;;;26.43;45.54;101749.84;5082192;28;45543;-78
2021/07/15 02:55:14;;;;;;;;;5.00;5.00;;;;;26.52;45.55;101762.91;5082093;28;46228;-78
2021/07/15 02:57:59;;;;;;;;;5.33;5.33;;;;;26.52;45.10;101772.75;5082326;28;45185;-78
2021/07/15 03:00:26;;;;;;;;;7.25;7.25;;;;;26.32;45.51;101738.66;5073581;28;45295;-78
2021/07/15 03:03:21;;;;;;;;;6.00;6.00;;;;;26.51;45.60;101771.13;5061832;28;45497;-78
2021/07/15 03:06:17;;;;;;;;;6.67;6.67;;;;;26.51;45.65;101765.78;5061860;28;45238;-78
2021/07/15 03:09:11;;;;;;;;;6.25;6.25;;;;;26.50;45.82;101761.47;5061544;28;45344;-78
2021/07/15 03:11:42;;;;;;;;;6.00;6.00;;;;;26.46;45.64;101747.69;5061611;28;45370;-79
2021/07/15 03:14:08;;;;;;;;;6.00;6.00;;;;;26.49;45.66;101752.63;5068313;28;45170;-79
2021/07/15 03:16:37;;;;;;;;;7.50;6.50;;;;;26.38;45.46;101743.25;5080955;28;47540;-79
2021/07/15 03:19:05;;;;;;;;;4.00;4.00;;;;;26.47;45.33;101760.00;5084354;28;45302;-78
2021/07/15 03:21:32;;;;;;;;;5.75;5.75;;;;;26.38;45.53;101745.09;5083482;28;45367;-79
2021/07/15 03:23:59;;;;;;;;;6.50;4.50;;;;;26.33;45.49;101732.31;5082276;27;45519;-78
2021/07/15 03:26:26;;;;;;;;;6.50;6.50;;;;;26.38;45.24;101745.94;5081398;28;46446;-78
2021/07/15 03:28:53;;;;;;;;;8.00;5.50;;;;;26.37;45.74;101741.59;5081332;28;45440;-78
2021/07/15 03:31:21;;;;;;;;;5.75;5.75;;;;;26.39;45.55;101744.06;5066384;28;45277;-79
2021/07/15 03:33:50;;;;;;;;;7.25;6.25;;;;;26.46;45.78;101763.69;5061618;28;45504;-78
2021/07/15 03:36:16;;;;;;;;;6.00;6.00;;;;;26.35;45.53;101740.97;5060379;28;46242;-78
2021/07/15 03:38:42;;;;;;;;;6.00;6.00;;;;;26.46;45.54;101753.03;5072497;28;45161;-78
2021/07/15 03:41:10;;;;;;;;;6.00;5.67;;;;;26.46;45.35;101754.84;5063533;28;45431;-78
2021/07/15 03:43:37;;;;;;;;;5.75;4.75;;;;;26.47;45.34;101760.00;5081158;28;45499;-78
2021/07/15 03:46:04;;;;;;;;;6.75;6.75;;;;;26.43;45.53;101745.34;5081395;28;45458;-78
2021/07/15 03:48:30;;;;;;;;;6.50;6.50;;;;;26.49;45.47;101757.94;5080227;28;45298;-78
2021/07/15 03:51:16;;;;;;;;;4.50;4.50;;;;;26.50;45.58;101761.47;5081742;28;45364;-79
2021/07/15 03:53:44;;;;;;;;;5.00;5.00;;;;;26.46;45.80;101752.19;5079817;28;45541;-78
2021/07/15 03:56:14;;;;;;;;;6.00;6.00;;;;;26.43;45.31;101741.84;5081391;28;45416;-78
2021/07/15 03:58:42;;;;;;;;;6.00;6.00;;;;;26.50;45.97;101759.63;5081410;28;45413;-79
2021/07/15 04:01:09;;;;;;;;;6.50;5.75;;;;;26.45;45.32;101740.69;5081284;28;45402;-78
2021/07/15 04:03:36;;;;;;;;;7.00;6.00;;;;;26.51;45.38;101752.44;5081248;28;45469;-79
2021/07/15 04:06:03;;;;;;;;;6.00;6.00;;;;;26.23;45.46;101711.25;5081056;28;46374;-78
2021/07/15 04:08:31;;;;;;;;;5.00;5.00;;;;;26.49;45.56;101751.81;5080752;28;45367;-78
2021/07/15 04:11:02;;;;;;;;;6.25;5.50;;;;;26.41;45.40;101744.72;5081285;28;45472;-78
2021/07/15 04:13:28;;;;;;;;;7.50;6.75;;;;;26.49;45.32;101765.97;5080671;28;45334;-78
2021/07/15 04:15:54;;;;;;;;;5.50;5.00;;;;;26.50;45.33;101766.78;5081780;28;46575;-78
2021/07/15 04:18:27;;;;;;;;;6.75;6.75;;;;;26.48;45.60;101760.81;5083543;28;45284;-79
2021/07/15 04:20:54;;;;;;;;;6.00;6.00;;;;;26.45;45.12;101762.03;5082275;28;45186;-78
2021/07/15 04:23:22;;;;;;;;;5.33;5.33;;;;;26.48;45.39;101763.50;5081452;28;45450;-78
2021/07/15 04:25:51;;;;;;;;;5.25;5.25;;;;;26.39;45.82;101758.22;5081457;28;46181;-78
2021/07/15 04:28:16;;;;;;;;;6.00;6.00;;;;;26.40;45.34;101767.06;5081033;28;45415;-79
2021/07/15 04:30:47;;;;;;;;;5.50;5.50;;;;;26.39;45.25;101760.91;5071501;28;45296;-78
2021/07/15 04:33:13;;;;;;;;;6.00;6.00;;;;;26.26;45.58;101744.72;5061085;28;45399;-78
2021/07/15 04:35:40;;;;;;;;;5.00;5.00;;;;;26.39;45.25;101760.06;5060581;28;46111;-78
2021/07/15 04:38:06;;;;;;;;;7.75;7.75;;;;;26.38;45.49;101761.09;5072804;28;45341;-78
2021/07/15 04:40:34;;;;;;;;;5.00;5.00;;;;;26.42;45.57;101773.03;5072298;28;45356;-78
2021/07/15 04:43:05;;;;;;;;;5.75;4.00;;;;;26.46;45.48;101787.72;5080990;28;45227;-78
2021/07/15 04:45:33;;;;;;;;;7.25;5.75;;;;;26.45;45.28;101790.53;5080619;28;45422;-78
2021/07/15 04:48:00;;;;;;;;;6.00;6.00;;;;;26.40;45.53;101785.75;5080342;27;45256;-78
2021/07/15 04:50:32;;;;;;;;;7.00;7.00;;;;;26.33;45.26;101780.34;5081290;28;45279;-78
2021/07/15 04:53:03;;;;;;;;;6.00;5.25;;;;;26.31;45.60;101778.88;5080905;28;45224;-78
2021/07/15 04:55:30;;;;;;;;;7.00;5.75;;;;;26.32;45.58;101780.50;5063290;28;47793;-78
2021/07/15 04:57:55;;;;;;;;;5.75;5.75;;;;;26.39;45.40;101802.75;5061030;28;45272;-78
2021/07/15 05:00:24;;;;;;;;;6.50;4.50;;;;;26.46;45.61;101802.88;5060677;28;45344;-78
2021/07/15 05:02:59;;;;;;;;;7.00;6.00;;;;;26.33;45.23;101788.34;5061543;28;45243;-78
2021/07/15 05:05:25;;;;;;;;;4.67;4.33;;;;;26.36;45.06;101801.28;5060529;28;46109;-78
2021/07/15 05:07:50;;;;;;;;;6.00;5.50;;;;;26.47;45.38;101816.03;5060231;28;45222;-79
2021/07/15 05:10:15;;;;;;;;;5.00;5.00;;;;;26.31;45.55;101784.22;5060767;28;45185;-79
2021/07/15 05:12:41;;;;;;;;;5.50;4.25;;;;;26.42;45.32;101805.06;5060656;28;45513;-78
2021/07/15 05:15:09;;;;;;;;;5.25;5.25;;;;;26.48;45.11;101814.19;5060050;28;46143;-79
2021/07/15 05:17:35;;;;;;;;;6.50;6.00;;;;;26.48;45.46;101811.53;5060634;28;45377;-79
2021/07/15 05:20:05;;;;;;;;;5.50;5.00;;;;;26.43;45.23;101806.72;5060613;28;45304;-79
2021/07/15 05:22:30;;;;;;;;;5.75;4.00;;;;;26.36;45.21;101790.63;5059998;28;45418;-79
2021/07/15 05:24:56;;;;;;;;;5.25;5.25;;;;;26.40;45.66;101796.41;5059975;28;45233;-79
2021/07/15 05:27:21;;;;;;;;;4.00;4.00;;;;;26.45;45.34;101801.22;5060556;28;45246;-79
2021/07/15 05:29:47;;;;;;;;;4.50;4.50;;;;;26.46;45.63;101818.91;5064665;28;45668;-79
2021/07/15 05:32:12;;;;;;;;;6.00;6.00;;;;;26.44;45.43;101800.38;5060438;28;45414;-79
2021/07/15 05:34:37;;;;;;;;;5.00;5.00;;;;;26.44;45.62;101812.91;5060401;28;46426;-78
2021/07/15 05:37:04;;;;;;;;;6.75;6.00;;;;;26.35;45.63;101796.97;5062760;28;45942;-79
2021/07/15 05:39:30;;;;;;;;;7.00;6.25;;;;;26.41;45.69;101814.09;5060232;28;45469;-78
2021/07/15 05:41:55;;;;;;;;;4.25;4.25;;;;;26.48;45.37;101828.38;5069026;28;45513;-75
2021/07/15 05:44:20;;;;;;;;;5.75;4.50;;;;;26.45;45.41;101825.22;5079853;28;45262;-76
2021/07/15 05:46:46;;;;;;;;;4.00;4.00;;;;;26.45;45.35;101822.56;5080503;28;45307;-73
2021/07/15 05:49:11;;;;;;;;;6.00;6.00;;;;;26.37;45.45;101820.78;5080416;28;45357;-77
2021/07/15 05:51:37;;;;;;;;;9.75;9.75;;;;;26.51;44.29;101838.66;5081931;28;45422;-78
2021/07/15 05:54:02;;;;;;;;;10.25;9.00;;;;;26.43;44.01;101829.91;5081634;27;45196;-78
2021/07/15 05:56:28;;;;;;;;;12.75;11.25;;;;;26.24;43.92;101813.44;5080185;28;45171;-78
2021/07/15 05:58:53;;;;;;;;;11.50;10.50;;;;;26.07;44.11;101819.81;5081420;28;45199;-78
2021/07/15 06:01:19;;;;;;;;;10.75;8.50;;;;;25.96;44.05;101806.94;5084009;28;45165;-78
2021/07/15 06:03:46;;;;;;;;;8.00;8.00;;;;;26.04;43.48;101838.84;5077636;28;46391;-77
2021/07/15 06:06:11;;;;;;;;;10.00;8.25;;;;;25.90;44.08;101819.16;5063435;28;45237;-78
2021/07/15 06:08:36;;;;;;;;;10.00;10.00;;;;;25.84;44.10;101826.06;5063198;28;45169;-76
2021/07/15 06:11:02;;;;;;;;;8.00;8.00;;;;;25.92;44.08;101845.63;5063447;28;45489;-77
2021/07/15 06:13:28;;;;;;;;;9.00;8.00;;;;;25.89;44.34;101835.34;5062827;28;45417;-78
2021/07/15 06:15:54;;;;;;;;;4.25;4.00;;;;;25.92;44.25;101840.28;5063349;28;45411;-78
2021/07/15 06:18:20;;;;;;;;;9.25;9.25;;;;;25.95;44.37;101840.78;5062956;28;45350;-78
2021/07/15 06:20:45;;;;;;;;;8.25;7.00;;;;;25.93;44.23;101824.13;5062956;28;45320;-78
2021/07/15 06:23:11;;;;;;;;;7.75;7.75;;;;;25.93;44.27;101833.97;5062721;28;45346;-78
2021/07/15 06:25:36;;;;;;;;;8.75;7.75;;;;;25.84;43.91;101823.38;5062812;28;45278;-77
2021/07/15 06:28:02;;;;;;;;;9.00;8.00;;;;;25.91;44.51;101823.50;5060664;28;45332;-77
2021/07/15 06:30:27;;;;;;;;;8.75;6.75;;;;;26.12;44.52;101839.78;5065825;28;45245;-78
2021/07/15 06:32:54;;;;;;;;;7.50;6.00;;;;;26.29;44.80;101851.91;5062291;28;45505;-77
2021/07/15 06:35:22;;;;;;;;;5.50;5.50;;;;;26.33;44.46;101831.03;5063144;28;45247;-76
2021/07/15 06:37:51;;;;;;;;;7.25;7.25;;;;;26.46;44.23;101833.06;5074711;28;45487;-76
2021/07/15 06:40:17;;;;;;;;;8.25;8.00;;;;;26.64;44.34;101847.84;5063316;28;45468;-77
2021/07/15 06:42:42;;;;;;;;;8.00;6.75;;;;;26.63;44.30;101832.84;5077863;28;45428;-76
2021/07/15 06:45:09;;;;;;;;;11.00;9.00;;;;;26.65;44.33;101822.78;5083564;28;45348;-76
2021/07/15 06:47:36;;;;;;;;;7.25;6.75;;;;;26.84;44.00;101847.22;5084294;28;45240;-76
2021/07/15 06:50:03;;;;;;;;;7.00;7.00;;;;;26.94;44.01;101846.91;5081270;28;45239;-76
2021/07/15 06:52:30;;;;;;;;;8.25;7.50;;;;;26.95;43.73;101845.91;5082527;28;45611;-76
2021/07/15 06:54:57;;;;;;;;;9.50;8.00;;;;;27.01;44.05;101847.00;5081019;28;45394;-76
2021/07/15 06:57:23;;;;;;;;;10.00;8.00;;;;;27.11;43.78;101854.69;5074823;27;45238;-76
2021/07/15 06:59:48;;;;;;;;;8.00;7.00;;;;;27.04;44.00;101828.72;5062330;28;45247;-76
2021/07/15 07:02:14;;;;;;;;;5.50;5.50;;;;;27.07;43.92;101830.19;5062136;28;45295;-76
2021/07/15 07:04:39;;;;;;;;;9.25;8.75;;;;;27.25;43.62;101853.00;5063387;28;45162;-76
2021/07/15 07:07:05;;;;;;;;;7.00;6.00;;;;;27.27;43.56;101853.66;5062883;28;45230;-76
2021/07/15 07:09:30;;;;;;;;;7.50;7.25;;;;;27.26;43.52;101842.13;5061890;28;45389;-76
2021/07/15 07:11:56;;;;;;;;;8.25;7.00;;;;;27.33;43.54;101858.22;5062063;28;45464;-76
2021/07/15 07:14:21;;;;;;;;;7.00;7.00;;;;;27.31;44.22;101857.56;5061927;28;45230;-76
2021/07/15 07:16:46;;;;;;;;;8.25;6.25;;;;;27.37;43.64;101861.34;5062447;28;45166;-76
2021/07/15 07:19:12;;;;;;;;;8.25;8.25;;;;;27.31;44.03;101846.06;5062681;28;45338;-76
2021/07/15 07:21:37;;;;;;;;;6.25;6.25;;;;;27.34;43.64;101848.34;5062316;28;45738;-76
2021/07/15 07:24:03;;;;;;;;;6.00;6.00;;;;;27.39;43.44;101860.13;5062283;28;45371;-76
2021/07/15 07:26:28;;;;;;;;;9.00;8.00;;;;;27.47;43.33;101856.47;5062002;28;45548;-76
2021/07/15 07:28:54;;;;;;;;;5.75;5.75;;;;;27.54;43.69;101864.53;5061389;28;45264;-76
2021/07/15 07:31:19;;;;;;;;;7.00;5.25;;;;;27.42;43.25;101837.53;5065737;28;46300;-76
2021/07/15 07:33:45;;;;;;;;;5.50;5.50;;;;;27.48;43.88;101846.63;5060791;28;45359;-76
2021/07/15 07:36:10;;;;;;;;;8.00;8.00;;;;;27.44;43.57;101843.50;5062237;28;45315;-76
2021/07/15 07:38:36;;;;;;;;;6.75;6.75;;;;;27.59;43.37;101859.44;5073935;27;45310;-76
2021/07/15 07:41:02;;;;;;;;;7.00;7.00;;;;;27.58;43.72;101865.81;5063261;28;45525;-76
2021/07/15 07:43:27;;;;;;;;;7.25;5.50;;;;;27.51;43.54;101849.72;5081678;28;45228;-76
2021/07/15 07:45:54;;;;;;;;;7.25;6.75;;;;;27.61;43.27;101872.63;5082461;28;45227;-76
2021/07/15 07:48:20;;;;;;;;;6.25;6.25;;;;;27.71;43.63;101883.00;5082602;28;45370;-76
2021/07/15 07:50:45;;;;;;;;;5.00;5.00;;;;;27.69;43.13;101877.81;5081969;28;45603;-76
2021/07/15 07:53:11;;;;;;;;;3.00;3.00;;;;;27.76;43.35;101874.38;5082019;28;45285;-76
2021/07/15 07:55:36;;;;;;;;;8.75;7.75;;;;;27.64;42.92;101861.53;5070279;28;45806;-76
2021/07/15 07:58:02;;;;;;;;;7.75;7.00;;;;;27.62;43.60;101860.91;5061777;28;45161;-76
2021/07/15 08:00:28;;;;;;;;;5.75;5.75;;;;;27.76;43.08;101877.88;5061442;28;45266;-76
2021/07/15 08:02:54;;;;;;;;;5.00;5.00;;;;;27.79;43.62;101879.34;5061754;28;45468;-76
2021/07/15 08:05:22;;;;;;;;;7.75;7.75;;;;;27.79;43.04;101876.66;5061647;28;45412;-76
2021/07/15 08:07:48;;;;;;;;;7.75;6.75;;;;;27.72;42.95;101872.09;5061359;28;45232;-75
2021/07/15 08:10:14;;;;;;;;;6.25;6.25;;;;;27.84;43.30;101888.44;5061193;28;46505;-76
2021/07/15 08:12:40;;;;;;;;;7.50;5.75;;;;;27.85;43.47;101878.56;5061636;28;45295;-76
2021/07/15 08:15:08;;;;;;;;;8.00;8.00;;;;;27.84;42.86;101876.94;5061096;28;45504;-76
2021/07/15 08:17:33;;;;;;;;;8.00;8.00;;;;;27.72;43.06;101860.56;5061301;28;45288;-76
2021/07/15 08:19:59;;;;;;;;;5.50;5.50;;;;;27.81;43.14;101882.66;5061169;28;45425;-75
2021/07/15 08:22:25;;;;;;;;;4.67;4.00;;;;;27.79;42.76;101869.44;5060737;28;45326;-76
2021/07/15 08:24:50;;;;;;;;;7.75;7.00;;;;;27.76;43.44;101864.50;5061256;28;45876;-76
2021/07/15 08:27:15;;;;;;;;;7.00;7.00;;;;;27.83;43.34;101880.63;5061694;28;45237;-76
2021/07/15 08:29:41;;;;;;;;;4.00;4.00;;;;;27.84;43.34;101866.25;5065001;28;45519;-76
2021/07/15 08:32:07;;;;;;;;;5.75;5.75;;;;;27.81;43.11;101867.47;5061372;28;45287;-76
2021/07/15 08:34:33;;;;;;;;;7.00;7.00;;;;;27.70;43.31;101839.38;5061056;27;45291;-76
2021/07/15 08:36:58;;;;;;;;;7.50;6.00;;;;;27.81;43.43;101853.25;5067588;28;45510;-76
2021/07/15 08:39:24;;;;;;;;;8.00;7.75;;;;;27.77;43.38;101842.09;5066126;27;46665;-76
2021/07/15 08:41:50;;;;;;;;;7.00;5.75;;;;;27.77;42.88;101839.41;5069534;28;45284;-76
2021/07/15 08:44:16;;;;;;;;;6.50;6.25;;;;;27.86;42.92;101861.53;5080870;28;45163;-76
2021/07/15 08:46:49;;;;;;;;;4.25;4.25;;;;;27.91;43.51;101856.41;5081265;28;45244;-76
2021/07/15 08:49:20;;;;;;;;;6.50;6.00;;;;;27.75;42.82;101825.41;5063925;28;47552;-76
2021/07/15 08:51:47;;;;;;;;;6.00;6.00;;;;;27.94;43.28;101849.84;5060701;28;45281;-76
2021/07/15 08:54:16;;;;;;;;;6.00;6.00;;;;;27.95;42.84;101851.47;5060686;28;45312;-76
2021/07/15 08:56:47;;;;;;;;;4.75;4.75;;;;;27.98;43.46;101855.59;5060330;28;45502;-76
2021/07/15 08:59:14;;;;;;;;;7.00;7.00;;;;;27.83;42.75;101836.00;5060123;28;45710;-76
2021/07/15 09:01:56;;;;;;;;;5.00;5.00;;;;;27.88;43.32;101848.78;5060626;28;45290;-76
2021/07/15 09:04:23;;;;;;;;;5.25;5.25;;;;;28.00;42.97;101864.28;5060796;28;45335;-76
2021/07/15 09:06:49;;;;;;;;;6.00;6.00;;;;;27.99;42.67;101859.94;5060829;28;45358;-76
2021/07/15 09:09:15;;;;;;;;;7.00;6.00;;;;;27.92;43.00;101850.03;5060343;28;46500;-75
2021/07/15 09:11:42;;;;;;;;;8.00;7.00;;;;;27.91;42.68;101839.53;5060482;28;45299;-75
2021/07/15 09:14:17;;;;;;;;;5.75;5.75;;;;;28.03;42.54;101858.53;5067011;28;45322;-75
2021/07/15 09:16:57;;;;;;;;;5.25;5.00;;;;;28.06;42.73;101860.81;5080614;28;45447;-76
2021/07/15 09:19:25;;;;;;;;;6.50;6.50;;;;;28.08;43.15;101864.09;5080635;28;45248;-76
2021/07/15 09:21:51;;;;;;;;;5.75;5.00;;;;;28.01;43.31;101844.53;5080661;28;45337;-76
2021/07/15 09:24:39;;;;;;;;;6.00;6.00;;;;;28.04;42.81;101860.19;5080909;28;45215;-76
2021/07/15 09:27:15;;;;;;;;;5.75;5.75;;;;;27.94;42.67;101839.97;5080562;27;45263;-75
2021/07/15 09:29:42;;;;;;;;;5.50;4.00;;;;;27.90;43.33;101838.69;5078700;28;45502;-76
2021/07/15 09:32:07;;;;;;;;;6.00;6.00;;;;;27.95;43.40;101844.28;5064939;28;45222;-76
2021/07/15 09:34:35;;;;;;;;;5.25;4.75;;;;;28.00;42.76;101851.72;5078089;28;45255;-76
2021/07/15 09:37:15;;;;;;;;;6.00;6.00;;;;;28.03;43.17;101853.16;5068990;28;45246;-76
2021/07/15 09:39:47;;;;;;;;;6.00;5.50;;;;;28.03;42.77;101851.31;5077544;28;45535;-76
2021/07/15 09:42:15;;;;;;;;;5.00;5.00;;;;;28.07;42.95;101857.13;5064485;28;45418;-76
2021/07/15 09:44:46;;;;;;;;;5.00;5.00;;;;;28.03;43.16;101842.47;5060544;28;45407;-76
2021/07/15 09:47:34;;;;;;;;;6.25;5.50;;;;;28.05;43.00;101856.50;5059762;28;45243;-76
2021/07/15 09:50:19;;;;;;;;;5.00;5.00;;;;;28.01;42.85;101847.19;5068356;28;45641;-76
2021/07/15 09:52:45;;;;;;;;;6.25;5.75;;;;;27.91;43.36;101850.22;5058154;28;45359;-76
2021/07/15 09:55:22;;;;;;;;;6.25;5.00;;;;;27.96;42.70;101853.13;5060223;28;45382;-76
2021/07/15 09:58:14;;;;;;;;;7.00;6.50;;;;;27.94;43.56;101858.69;5060031;28;45338;-76
2021/07/15 10:00:46;;;;;;;;;6.00;6.00;;;;;27.77;42.77;101812.66;5058515;28;45324;-76
2021/07/15 10:03:14;;;;;;;;;6.00;6.00;;;;;27.95;42.83;101856.81;5059802;28;45231;-76
2021/07/15 10:05:53;;;;;;;;;7.25;5.50;;;;;27.97;42.94;101854.81;5059774;28;45323;-76
2021/07/15 10:08:27;;;;;;;;;5.00;5.00;;;;;27.98;42.98;101858.28;5059805;28;45397;-76
2021/07/15 10:10:54;;;;;;;;;6.00;6.00;;;;;27.82;43.45;101830.81;5059607;28;45238;-75
2021/07/15 10:13:24;;;;;;;;;6.00;5.00;;;;;27.83;43.55;101836.00;5060715;28;45254;-76
2021/07/15 10:15:51;;;;;;;;;6.00;5.50;;;;;27.95;43.37;101851.47;5059420;28;45374;-76
2021/07/15 10:18:44;;;;;;;;;5.00;4.50;;;;;27.93;42.82;101846.34;5058985;27;45482;-76
2021/07/15 10:21:13;;;;;;;;;6.00;6.00;;;;;27.87;43.42;101836.41;5058806;28;45600;-74
2021/07/15 10:23:44;;;;;;;;;6.50;4.75;;;;;27.84;43.41;101850.19;5058042;28;45259;-76
2021/07/15 10:26:12;;;;;;;;;6.00;6.00;;;;;27.84;43.05;101850.19;5059711;28;45340;-76
2021/07/15 10:28:42;;;;;;;;;5.00;5.00;;;;;27.81;43.15;101842.56;5058216;28;45312;-76
2021/07/15 10:31:08;;;;;;;;;5.50;5.25;;;;;27.72;43.57;101829.31;5064041;28;46659;-76
2021/07/15 10:33:35;;;;;;;;;6.25;6.00;;;;;27.84;43.02;101848.31;5059302;28;45350;-76
2021/07/15 10:36:04;;;;;;;;;6.50;6.00;;;;;27.77;43.65;101844.75;5059738;28;45326;-76
2021/07/15 10:38:35;;;;;;;;;5.00;5.00;;;;;27.83;43.63;101854.72;5071755;28;45532;-75
2021/07/15 10:41:01;;;;;;;;;5.50;5.00;;;;;27.70;42.98;101842.06;5060797;28;46249;-76
2021/07/15 10:43:27;;;;;;;;;6.00;5.00;;;;;27.62;43.68;101823.47;5079222;28;45434;-76
2021/07/15 10:45:54;;;;;;;;;7.25;6.25;;;;;27.82;43.28;101861.06;5082505;28;45192;-75
2021/07/15 10:48:20;;;;;;;;;4.75;4.75;;;;;27.79;43.38;101853.41;5083014;28;45419;-76
2021/07/15 10:50:45;;;;;;;;;6.75;6.75;;;;;27.67;43.50;101836.25;5082905;28;45231;-76
2021/07/15 10:53:13;;;;;;;;;8.25;6.50;;;;;27.74;43.45;101851.31;5082977;28;45303;-76
2021/07/15 10:55:40;;;;;;;;;6.25;6.25;;;;;27.68;43.35;101840.59;5083175;28;45334;-76
2021/07/15 10:58:05;;;;;;;;;5.25;5.00;;;;;27.74;43.70;101850.50;5081348;28;45350;-76
2021/07/15 11:00:31;;;;;;;;;4.00;4.00;;;;;27.80;43.74;101856.94;5082670;28;46581;-76
2021/07/15 11:03:14;;;;;;;;;4.00;4.00;;;;;27.70;43.23;101851.91;5082827;28;45288;-76
2021/07/15 11:05:56;;;;;;;;;5.00;5.00;;;;;27.78;43.38;101872.31;5083013;27;45318;-76
2021/07/15 11:08:39;;;;;;;;;6.00;5.75;;;;;27.80;43.52;101875.66;5080490;28;45283;-75
2021/07/15 11:11:05;;;;;;;;;4.25;4.25;;;;;27.77;43.40;101874.16;5062363;28;46648;-76
2021/07/15 11:13:33;;;;;;;;;5.00;5.00;;;;;27.79;43.36;101882.81;5062103;28;45431;-76
2021/07/15 11:15:58;;;;;;;;;6.00;6.00;;;;;27.69;43.48;101869.78;5062650;28;45277;-76
2021/07/15 11:19:01;;;;;;;;;4.00;4.00;;;;;27.77;43.69;101882.19;5062248;28;45374;-75
2021/07/15 11:21:28;;;;;;;;;6.50;5.50;;;;;27.76;43.54;101879.72;5061702;28;46721;-76
2021/07/15 11:24:13;;;;;;;;;5.75;5.75;;;;;27.76;43.77;101890.41;5062167;28;45343;-76
2021/07/15 11:26:41;;;;;;;;;4.00;4.00;;;;;27.67;43.80;101857.66;5062190;28;45325;-76
2021/07/15 11:29:07;;;;;;;;;7.00;5.00;;;;;27.71;43.20;101881.13;5062654;28;45354;-76
2021/07/15 11:31:41;;;;;;;;;5.00;4.50;;;;;27.73;43.21;101887.13;5065036;27;46319;-75